createdAt,value
2023-03-31T00:00:47.206Z,98911.78
2023-03-31T00:03:22.115Z,98907.25
2023-03-31T00:05:53.337Z,98913.19
2023-03-31T00:08:21.138Z,98911.31
2023-03-31T00:13:46.762Z,98898.78
2023-03-31T00:19:22.087Z,98895.69
2023-03-31T00:21:51.049Z,98895.44
2023-03-31T00:24:19.708Z,98884.63
2023-03-31T00:29:45.771Z,98878.38
2023-03-31T00:32:14.531Z,98875.31
2023-03-31T00:34:44.459Z,98883.69
2023-03-31T00:37:14.639Z,98871.81
2023-03-31T00:42:30.797Z,98869.97
2023-03-31T00:45:31.541Z,98857.47
2023-03-31T00:48:03.181Z,98858.28
2023-03-31T00:50:33.430Z,98851.91
2023-03-31T00:53:02.130Z,98843.59
2023-03-31T00:55:31.353Z,98845.81
2023-03-31T00:58:01.857Z,98829.44
2023-03-31T01:00:30.104Z,98826.97
2023-03-31T01:02:58.957Z,98828.22
2023-03-31T01:05:27.677Z,98823.94
2023-03-31T01:07:56.369Z,98820.06
2023-03-31T01:13:12.410Z,98817.16
2023-03-31T01:15:39.784Z,98802.25
2023-03-31T01:18:09.839Z,98806.38
2023-03-31T01:23:46.363Z,98795.13
2023-03-31T01:26:24.639Z,98796.88
2023-03-31T01:28:53.106Z,98782.66
2023-03-31T01:34:16.928Z,98780.63
2023-03-31T01:40:09.617Z,98770.69
2023-03-31T01:42:37.359Z,98765.84
2023-03-31T01:45:09.030Z,98765.44
2023-03-31T01:47:40.757Z,98767.78
2023-03-31T01:50:09.628Z,98760.91
2023-03-31T01:55:37.964Z,98752.13
2023-03-31T01:58:07.127Z,98755.44
2023-03-31T02:00:34.870Z,98747.09
2023-03-31T02:03:04.318Z,98740.34
2023-03-31T02:05:32.917Z,98726.88
2023-03-31T02:08:01.412Z,98730.38
2023-03-31T02:10:30.692Z,98722.41
2023-03-31T02:13:00.596Z,98727.13
2023-03-31T02:15:28.799Z,98716.53
2023-03-31T02:17:56.483Z,98712.66
2023-03-31T02:20:23.959Z,98706.72
2023-03-31T02:25:41.500Z,98701.41
2023-03-31T02:28:10.542Z,98705.53
2023-03-31T02:30:40.897Z,98703.06
2023-03-31T02:33:08.351Z,98697.94
2023-03-31T02:38:35.895Z,98689.78
2023-03-31T02:41:05.769Z,98683.66
2023-03-31T02:43:35.134Z,98671.19
2023-03-31T02:46:02.615Z,98663.47
2023-03-31T02:48:32.223Z,98661.78
2023-03-31T02:51:14.455Z,98658.94
2023-03-31T02:53:46.072Z,98648.94
2023-03-31T02:56:17.391Z,98657.50
2023-03-31T02:58:48.972Z,98644.41
2023-03-31T03:04:09.402Z,98636.22
2023-03-31T03:06:38.433Z,98630.53
2023-03-31T03:09:18.413Z,98628.47
2023-03-31T03:11:47.170Z,98625.81
2023-03-31T03:14:18.228Z,98624.16
2023-03-31T03:16:46.141Z,98613.13
2023-03-31T03:22:01.800Z,98614.59
2023-03-31T03:24:29.718Z,98607.03
2023-03-31T03:26:57.608Z,98604.53
2023-03-31T03:29:27.095Z,98597.22
2023-03-31T03:31:54.557Z,98583.53
2023-03-31T03:34:21.847Z,98583.72
2023-03-31T03:36:49.169Z,98589.06
2023-03-31T03:39:16.577Z,98581.69
2023-03-31T03:41:43.925Z,98573.50
2023-03-31T03:44:11.244Z,98564.94
2023-03-31T03:46:39.912Z,98559.03
2023-03-31T03:49:07.465Z,98553.94
2023-03-31T03:51:34.816Z,98541.66
2023-03-31T03:54:02.130Z,98535.94
2023-03-31T03:59:28.056Z,98511.81
2023-03-31T04:01:56.838Z,98505.28
2023-03-31T04:04:24.272Z,98506.09
2023-03-31T04:06:51.630Z,98502.00
2023-03-31T04:09:18.926Z,98487.06
2023-03-31T04:11:46.240Z,98485.63
2023-03-31T04:14:13.547Z,98480.31
2023-03-31T04:16:41.000Z,98484.22
2023-03-31T04:22:02.669Z,98479.34
2023-03-31T04:24:32.736Z,98470.72
2023-03-31T04:27:03.182Z,98468.09
2023-03-31T04:29:33.451Z,98461.94
2023-03-31T04:32:01.114Z,98458.44
2023-03-31T04:34:35.401Z,98467.66
2023-03-31T04:37:04.843Z,98453.56
2023-03-31T04:39:32.303Z,98442.88
2023-03-31T04:41:59.980Z,98436.56
2023-03-31T04:44:34.110Z,98430.41
2023-03-31T04:47:02.902Z,98432.72
2023-03-31T04:49:33.336Z,98428.59
2023-03-31T04:52:04.782Z,98421.66
2023-03-31T04:54:32.119Z,98415.53
2023-03-31T04:56:59.446Z,98411.81
2023-03-31T04:59:26.831Z,98400.50
2023-03-31T05:01:54.157Z,98395.31
2023-03-31T05:04:21.668Z,98400.84
2023-03-31T05:06:49.103Z,98397.00
2023-03-31T05:09:17.992Z,98390.06
2023-03-31T05:11:45.330Z,98402.72
2023-03-31T05:14:12.846Z,98388.81
2023-03-31T05:16:41.891Z,98373.88
2023-03-31T05:21:57.770Z,98373.47
2023-03-31T05:27:26.787Z,98358.72
2023-03-31T05:29:54.128Z,98366.66
2023-03-31T05:32:21.591Z,98361.59
2023-03-31T05:34:51.645Z,98360.53
2023-03-31T05:37:23.030Z,98353.44
2023-03-31T05:39:51.812Z,98354.66
2023-03-31T05:45:09.351Z,98352.50
2023-03-31T05:47:36.974Z,98347.72
2023-03-31T05:50:07.423Z,98344.63
2023-03-31T05:52:34.753Z,98337.69
2023-03-31T05:55:03.618Z,98333.56
2023-03-31T05:57:31.148Z,98331.78
2023-03-31T05:59:58.806Z,98324.38
2023-03-31T06:02:26.223Z,98326.22
2023-03-31T06:07:44.321Z,98301.31
2023-03-31T06:10:13.079Z,98309.38
2023-03-31T06:12:40.480Z,98309.63
2023-03-31T06:15:08.374Z,98310.22
2023-03-31T06:17:38.409Z,98298.63
2023-03-31T06:20:19.711Z,98284.13
2023-03-31T06:25:51.351Z,98270.88
2023-03-31T06:31:08.824Z,98259.78
2023-03-31T06:33:36.614Z,98261.41
2023-03-31T06:36:05.798Z,98261.38
2023-03-31T06:38:33.357Z,98250.53
2023-03-31T06:41:02.092Z,98237.56
2023-03-31T06:43:29.388Z,98232.25
2023-03-31T06:45:56.892Z,98229.66
2023-03-31T06:48:25.043Z,98221.97
2023-03-31T06:50:52.757Z,98228.88
2023-03-31T06:53:20.241Z,98230.78
2023-03-31T06:58:45.876Z,98220.81
2023-03-31T07:01:13.372Z,98214.97
2023-03-31T07:03:40.806Z,98216.94
2023-03-31T07:06:08.308Z,98221.84
2023-03-31T07:08:36.141Z,98203.81
2023-03-31T07:11:03.863Z,98201.16
2023-03-31T07:16:18.220Z,98185.66
2023-03-31T07:18:45.813Z,98183.41
2023-03-31T07:21:13.372Z,98179.09
2023-03-31T07:23:40.866Z,98175.28
2023-03-31T07:26:08.525Z,98162.69
2023-03-31T07:28:36.025Z,98162.06
2023-03-31T07:31:03.713Z,98163.94
2023-03-31T07:33:32.668Z,98172.19
2023-03-31T07:36:08.261Z,98154.47
2023-03-31T07:38:39.701Z,98159.72
2023-03-31T07:41:09.394Z,98151.00
2023-03-31T07:46:26.516Z,98150.09
2023-03-31T07:48:55.506Z,98142.84
2023-03-31T07:51:23.826Z,98141.75
2023-03-31T07:53:52.309Z,98139.81
2023-03-31T07:59:10.271Z,98134.81
2023-03-31T08:04:37.182Z,98134.69
2023-03-31T08:07:04.687Z,98133.69
2023-03-31T08:09:32.266Z,98128.63
2023-03-31T08:11:59.591Z,98124.25
2023-03-31T08:14:39.974Z,98125.06
2023-03-31T08:17:08.225Z,98113.69
2023-03-31T08:19:37.086Z,98119.88
2023-03-31T08:22:04.462Z,98112.53
2023-03-31T08:24:31.823Z,98120.25
2023-03-31T08:26:59.124Z,98116.66
2023-03-31T08:29:26.496Z,98112.66
2023-03-31T08:34:45.932Z,98122.78
2023-03-31T08:37:13.234Z,98122.19
2023-03-31T08:39:41.105Z,98119.31
2023-03-31T08:42:12.158Z,98125.50
2023-03-31T08:44:41.868Z,98116.50
2023-03-31T08:47:11.893Z,98119.97
2023-03-31T08:49:41.339Z,98109.41
2023-03-31T08:52:12.310Z,98097.59
2023-03-31T08:54:40.193Z,98099.28
2023-03-31T08:57:11.926Z,98093.91
2023-03-31T09:02:48.430Z,98099.53
2023-03-31T09:05:24.202Z,98098.03
2023-03-31T09:10:50.964Z,98101.00
2023-03-31T09:13:29.049Z,98094.94
2023-03-31T09:15:57.346Z,98095.16
2023-03-31T09:18:27.512Z,98097.50
2023-03-31T09:23:57.025Z,98083.34
2023-03-31T09:26:27.604Z,98075.66
2023-03-31T09:28:55.582Z,98086.00
2023-03-31T09:31:22.932Z,98083.94
2023-03-31T09:33:50.353Z,98078.53
2023-03-31T09:36:18.605Z,98081.66
2023-03-31T09:38:47.114Z,98077.19
2023-03-31T09:41:15.108Z,98073.81
2023-03-31T09:43:45.960Z,98079.63
2023-03-31T09:46:16.261Z,98088.56
2023-03-31T09:48:44.893Z,98082.22
2023-03-31T09:51:16.807Z,98075.28
2023-03-31T09:53:44.602Z,98076.34
2023-03-31T09:56:12.141Z,98085.56
2023-03-31T09:58:41.197Z,98085.28
2023-03-31T10:01:10.617Z,98080.63
2023-03-31T10:03:43.004Z,98075.66
2023-03-31T10:06:10.748Z,98070.78
2023-03-31T10:08:39.581Z,98057.81
2023-03-31T10:11:11.311Z,98060.22
2023-03-31T10:16:31.683Z,98064.09
2023-03-31T10:19:12.503Z,98073.66
2023-03-31T10:21:39.861Z,98065.53
2023-03-31T10:27:06.314Z,98061.41
2023-03-31T10:29:33.924Z,98046.81
2023-03-31T10:32:05.285Z,98050.59
2023-03-31T10:34:32.608Z,98045.22
2023-03-31T10:36:59.915Z,98043.97
2023-03-31T10:42:26.006Z,98033.06
2023-03-31T10:44:56.488Z,98038.75
2023-03-31T10:47:25.461Z,98029.06
2023-03-31T10:49:57.146Z,98017.53
2023-03-31T10:52:27.076Z,98023.06
2023-03-31T10:54:55.725Z,98013.47
2023-03-31T10:57:24.647Z,98015.47
2023-03-31T11:00:01.874Z,98013.25
2023-03-31T11:02:39.901Z,98008.50
2023-03-31T11:05:09.669Z,98005.09
2023-03-31T11:07:39.417Z,98002.16
2023-03-31T11:13:00.638Z,97995.72
2023-03-31T11:18:43.432Z,97974.69
2023-03-31T11:21:13.624Z,97977.28
2023-03-31T11:23:42.385Z,97975.66
2023-03-31T11:29:11.903Z,97981.47
2023-03-31T11:31:41.710Z,97978.06
2023-03-31T11:34:16.863Z,97972.72
2023-03-31T11:36:52.189Z,97970.81
2023-03-31T11:39:23.273Z,97963.59
2023-03-31T11:41:50.937Z,97952.19
2023-03-31T11:44:19.243Z,97957.84
2023-03-31T11:47:11.674Z,97957.06
2023-03-31T11:49:41.352Z,97940.63
2023-03-31T11:54:57.261Z,97951.69
2023-03-31T11:57:25.500Z,97951.53
2023-03-31T11:59:54.674Z,97941.84
2023-03-31T12:05:22.279Z,97940.72
2023-03-31T12:07:51.272Z,97937.25
2023-03-31T12:10:20.697Z,97929.84
2023-03-31T12:12:49.642Z,97929.47
2023-03-31T12:15:18.406Z,97927.09
2023-03-31T12:17:46.475Z,97922.75
2023-03-31T12:23:04.779Z,97928.75
2023-03-31T12:25:35.466Z,97911.50
2023-03-31T12:28:02.978Z,97908.84
2023-03-31T12:30:31.313Z,97898.22
2023-03-31T12:33:00.383Z,97899.50
2023-03-31T12:38:26.747Z,97902.84
2023-03-31T12:43:58.867Z,97896.53
2023-03-31T12:46:30.970Z,97890.72
2023-03-31T12:49:00.763Z,97899.34
2023-03-31T12:51:33.049Z,97896.13
2023-03-31T12:54:05.361Z,97905.00
2023-03-31T12:56:47.639Z,97893.94
2023-03-31T12:59:18.555Z,97899.25
2023-03-31T13:04:34.776Z,97879.47
2023-03-31T13:07:02.114Z,97873.38
2023-03-31T13:12:31.181Z,97875.88
2023-03-31T13:15:00.207Z,97879.44
2023-03-31T13:17:29.130Z,97896.69
2023-03-31T13:19:59.128Z,97903.78
2023-03-31T13:22:33.216Z,97921.69
2023-03-31T13:25:19.359Z,97927.69
2023-03-31T13:27:53.072Z,97921.09
2023-03-31T13:30:35.444Z,97919.72
2023-03-31T13:33:03.841Z,97920.50
2023-03-31T13:35:31.188Z,97913.16
2023-03-31T13:38:01.634Z,97917.22
2023-03-31T13:40:33.128Z,97919.25
2023-03-31T13:43:11.147Z,97919.34
2023-03-31T13:45:42.957Z,97929.69
2023-03-31T13:51:15.854Z,97919.97
2023-03-31T13:53:51.318Z,97924.00
2023-03-31T13:56:34.771Z,97928.31
2023-03-31T13:59:23.693Z,97911.75
2023-03-31T14:02:03.470Z,97914.38
2023-03-31T14:04:39.161Z,97908.56
2023-03-31T14:07:08.529Z,97916.59
2023-03-31T14:12:35.707Z,97919.22
2023-03-31T14:15:05.121Z,97921.84
2023-03-31T14:17:33.751Z,97915.09
2023-03-31T14:20:08.609Z,97918.81
2023-03-31T14:22:40.311Z,97921.63
2023-03-31T14:28:09.561Z,97910.03
2023-03-31T14:30:42.581Z,97914.63
2023-03-31T14:33:17.031Z,97913.13
2023-03-31T14:35:45.072Z,97909.47
2023-03-31T14:38:13.176Z,97911.63
2023-03-31T14:40:43.794Z,97902.00
2023-03-31T14:43:11.769Z,97898.88
2023-03-31T14:48:33.113Z,97895.44
2023-03-31T14:53:59.118Z,97894.38
2023-03-31T14:56:28.684Z,97886.44
2023-03-31T14:58:56.303Z,97885.34
2023-03-31T15:01:24.851Z,97891.47
2023-03-31T15:03:53.768Z,97887.94
2023-03-31T15:06:21.266Z,97883.78
2023-03-31T15:08:48.642Z,97890.63
2023-03-31T15:14:05.791Z,97880.47
2023-03-31T15:16:36.135Z,97879.63
2023-03-31T15:19:06.335Z,97880.91
2023-03-31T15:21:37.257Z,97874.22
2023-03-31T15:24:04.794Z,97879.84
2023-03-31T15:26:57.305Z,97872.19
2023-03-31T15:29:25.923Z,97873.88
2023-03-31T15:31:53.331Z,97866.09
2023-03-31T15:34:25.665Z,97860.53
2023-03-31T15:36:54.454Z,97855.19
2023-03-31T15:39:21.846Z,97855.34
2023-03-31T15:41:49.380Z,97849.66
2023-03-31T15:44:30.063Z,97853.28
2023-03-31T15:49:42.013Z,97850.41
2023-03-31T15:52:17.792Z,97850.56
2023-03-31T15:54:45.159Z,97849.25
2023-03-31T15:57:12.505Z,97843.97
2023-03-31T16:07:47.758Z,97838.28
2023-03-31T16:10:16.872Z,97828.94
2023-03-31T16:12:46.593Z,97826.84
2023-03-31T16:18:07.594Z,97827.16
2023-03-31T16:23:41.690Z,97824.53
2023-03-31T16:26:09.090Z,97832.91
2023-03-31T16:28:36.879Z,97825.59
2023-03-31T16:31:05.168Z,97835.41
2023-03-31T16:36:21.025Z,97817.09
2023-03-31T16:38:49.711Z,97822.59
2023-03-31T16:41:17.155Z,97823.50
2023-03-31T16:43:45.298Z,97822.94
2023-03-31T16:49:11.214Z,97819.53
2023-03-31T16:51:38.511Z,97817.25
2023-03-31T16:54:08.082Z,97811.00
2023-03-31T16:56:35.406Z,97811.25
2023-03-31T16:59:03.574Z,97817.94
2023-03-31T17:01:30.897Z,97825.81
2023-03-31T17:03:58.249Z,97822.06
2023-03-31T17:09:26.191Z,97831.63
2023-03-31T17:11:53.534Z,97842.53
2023-03-31T17:14:20.886Z,97840.66
2023-03-31T17:16:48.976Z,97851.38
2023-03-31T17:22:14.796Z,97869.19
2023-03-31T17:24:43.449Z,97847.59
2023-03-31T17:30:10.187Z,97872.56
2023-03-31T17:32:37.500Z,97866.94
2023-03-31T17:35:05.039Z,97857.41
2023-03-31T17:37:32.946Z,97859.25
2023-03-31T17:40:01.601Z,97854.75
2023-03-31T17:42:28.973Z,97856.47
2023-03-31T17:44:58.320Z,97844.00
2023-03-31T17:47:25.777Z,97848.75
2023-03-31T17:49:53.331Z,97853.72
2023-03-31T17:55:10.569Z,97852.78
2023-03-31T17:57:40.146Z,97858.78
2023-03-31T18:00:08.988Z,97853.56
2023-03-31T18:02:39.253Z,97860.50
2023-03-31T18:08:05.581Z,97854.84
2023-03-31T18:10:34.487Z,97861.38
2023-03-31T18:13:02.409Z,97863.22
2023-03-31T18:15:29.763Z,97864.72
2023-03-31T18:17:57.115Z,97858.78
2023-03-31T18:20:27.970Z,97868.69
2023-03-31T18:22:55.406Z,97863.38
2023-03-31T18:25:22.758Z,97854.84
2023-03-31T18:27:51.809Z,97865.06
2023-03-31T18:30:21.190Z,97861.38
2023-03-31T18:33:13.012Z,97865.97
2023-03-31T18:35:40.647Z,97869.28
2023-03-31T18:38:08.189Z,97865.16
2023-03-31T18:40:35.887Z,97867.44
2023-03-31T18:43:04.575Z,97869.81
2023-03-31T18:45:32.729Z,97865.25
2023-03-31T18:48:00.296Z,97871.69
2023-03-31T18:50:28.106Z,97870.41
2023-03-31T18:52:56.442Z,97872.56
2023-03-31T18:58:24.188Z,97872.31
2023-03-31T19:00:51.591Z,97868.66
2023-03-31T19:03:19.433Z,97871.44
2023-03-31T19:05:46.853Z,97874.81
2023-03-31T19:08:14.792Z,97872.22
2023-03-31T19:10:42.099Z,97871.16
2023-03-31T19:13:09.392Z,97877.25
2023-03-31T19:15:38.015Z,97877.25
2023-03-31T19:18:06.055Z,97870.50
2023-03-31T19:20:33.452Z,97870.03
2023-03-31T19:23:00.817Z,97876.59
2023-03-31T19:25:28.441Z,97879.44
2023-03-31T19:27:56.246Z,97866.91
2023-03-31T19:30:24.857Z,97862.69
2023-03-31T19:32:53.584Z,97867.22
2023-03-31T19:35:20.968Z,97866.66
2023-03-31T19:37:48.481Z,97869.19
2023-03-31T19:40:15.853Z,97870.16
2023-03-31T19:42:44.210Z,97865.09
2023-03-31T19:45:36.771Z,97869.03
2023-03-31T19:48:05.885Z,97881.81
2023-03-31T19:50:33.218Z,97876.25
2023-03-31T19:53:00.816Z,97867.97
2023-03-31T19:55:28.352Z,97869.97
2023-03-31T19:57:55.866Z,97856.75
2023-03-31T20:03:15.767Z,97866.00
2023-03-31T20:05:43.162Z,97875.94
2023-03-31T20:08:10.474Z,97863.63
2023-03-31T20:10:37.826Z,97858.84
2023-03-31T20:16:05.865Z,97861.06
2023-03-31T20:18:36.262Z,97860.16
2023-03-31T20:21:05.402Z,97855.72
2023-03-31T20:23:32.769Z,97864.16
2023-03-31T20:26:00.861Z,97863.03
2023-03-31T20:28:28.312Z,97864.06
2023-03-31T20:30:56.105Z,97863.47
2023-03-31T20:36:13.999Z,97854.69
2023-03-31T20:38:41.916Z,97862.75
2023-03-31T20:41:09.589Z,97865.63
2023-03-31T20:43:37.282Z,97863.19
2023-03-31T20:46:04.978Z,97862.38
2023-03-31T20:51:22.592Z,97851.75
2023-03-31T20:53:52.601Z,97855.38
2023-03-31T20:56:20.616Z,97856.13
2023-03-31T20:58:48.169Z,97849.47
2023-03-31T21:01:15.597Z,97853.16
2023-03-31T21:03:43.348Z,97858.47
2023-03-31T21:06:11.941Z,97862.44
2023-03-31T21:11:40.084Z,97854.91
2023-03-31T21:14:07.651Z,97864.22
2023-03-31T21:16:35.165Z,97853.75
2023-03-31T21:19:02.560Z,97863.91
2023-03-31T21:21:30.484Z,97861.88
2023-03-31T21:23:58.016Z,97859.28
2023-03-31T21:26:25.737Z,97859.53
2023-03-31T21:28:58.543Z,97854.56
2023-03-31T21:31:27.067Z,97861.44
2023-03-31T21:33:56.199Z,97858.34
2023-03-31T21:36:23.927Z,97855.53
2023-03-31T21:38:52.402Z,97859.50
2023-03-31T21:41:22.502Z,97865.41
2023-03-31T21:46:50.284Z,97861.34
2023-03-31T21:49:18.634Z,97861.38
2023-03-31T21:51:46.066Z,97863.41
2023-03-31T21:54:13.440Z,97866.56
2023-03-31T21:56:40.756Z,97864.53
2023-03-31T21:59:08.642Z,97864.16
2023-03-31T22:01:36.271Z,97863.34
2023-03-31T22:04:05.076Z,97858.34
2023-03-31T22:06:34.338Z,97861.69
2023-03-31T22:09:01.678Z,97857.56
2023-03-31T22:11:29.197Z,97859.78
2023-03-31T22:13:57.128Z,97863.19
2023-03-31T22:16:24.581Z,97863.84
2023-03-31T22:18:52.675Z,97865.59
2023-03-31T22:21:22.612Z,97868.34
2023-03-31T22:23:51.177Z,97860.91
2023-03-31T22:29:16.869Z,97860.59
2023-03-31T22:31:44.183Z,97866.44
2023-03-31T22:34:11.915Z,97868.44
2023-03-31T22:36:40.648Z,97863.47
2023-03-31T22:42:15.926Z,97866.75
2023-03-31T22:44:43.207Z,97861.94
2023-03-31T22:47:10.815Z,97862.25
2023-03-31T22:49:38.131Z,97863.13
2023-03-31T22:52:06.883Z,97856.63
2023-03-31T22:54:34.209Z,97866.38
2023-03-31T22:57:01.872Z,97866.69
2023-03-31T22:59:29.197Z,97869.53
2023-03-31T23:01:56.519Z,97869.13
2023-03-31T23:04:23.920Z,97877.75
2023-03-31T23:06:52.705Z,97875.91
2023-03-31T23:12:20.537Z,97870.97
2023-03-31T23:14:47.835Z,97869.91
2023-03-31T23:17:15.144Z,97866.97
2023-03-31T23:19:43.061Z,97866.22
2023-03-31T23:24:58.803Z,97868.97
2023-03-31T23:27:27.442Z,97875.59
2023-03-31T23:29:54.773Z,97871.31
2023-03-31T23:32:22.093Z,97875.97
2023-03-31T23:34:50.788Z,97872.88
2023-03-31T23:37:18.884Z,97871.09
2023-03-31T23:39:46.371Z,97874.94
2023-03-31T23:42:16.037Z,97878.66
2023-03-31T23:44:44.681Z,97878.75
2023-03-31T23:50:11.204Z,97866.59
2023-03-31T23:52:38.505Z,97865.63
2023-03-31T23:55:06.558Z,97863.19
2023-03-31T23:57:34.050Z,97860.19
